sensor_id;sensor_type;location;lat;lon;timestamp;P1;durP1;ratioP1;P2;durP2;ratioP2
35496;SDS011;21609;49.298;6.844;2022-12-19T00:03:42;7.78;;;6.07;;
35496;SDS011;21609;49.298;6.844;2022-12-19T00:06:12;7.07;;;5.90;;
35496;SDS011;21609;49.298;6.844;2022-12-19T00:08:41;6.53;;;5.80;;
35496;SDS011;21609;49.298;6.844;2022-12-19T00:11:09;7.30;;;5.88;;
35496;SDS011;21609;49.298;6.844;2022-12-19T00:13:35;6.07;;;5.43;;
35496;SDS011;21609;49.298;6.844;2022-12-19T00:16:02;7.03;;;5.47;;
35496;SDS011;21609;49.298;6.844;2022-12-19T00:18:33;6.07;;;5.47;;
35496;SDS011;21609;49.298;6.844;2022-12-19T00:20:59;6.68;;;5.60;;
35496;SDS011;21609;49.298;6.844;2022-12-19T00:23:27;6.47;;;5.55;;
35496;SDS011;21609;49.298;6.844;2022-12-19T00:25:54;7.80;;;6.43;;
35496;SDS011;21609;49.298;6.844;2022-12-19T00:28:20;6.97;;;5.55;;
35496;SDS011;21609;49.298;6.844;2022-12-19T00:30:46;6.00;;;5.38;;
35496;SDS011;21609;49.298;6.844;2022-12-19T00:33:11;6.28;;;5.68;;
35496;SDS011;21609;49.298;6.844;2022-12-19T00:35:37;7.07;;;5.82;;
35496;SDS011;21609;49.298;6.844;2022-12-19T00:38:02;6.28;;;5.10;;
35496;SDS011;21609;49.298;6.844;2022-12-19T00:40:28;7.18;;;5.63;;
35496;SDS011;21609;49.298;6.844;2022-12-19T00:42:54;6.03;;;5.32;;
35496;SDS011;21609;49.298;6.844;2022-12-19T00:45:19;6.57;;;5.25;;
35496;SDS011;21609;49.298;6.844;2022-12-19T00:47:45;7.57;;;6.28;;
35496;SDS011;21609;49.298;6.844;2022-12-19T00:50:11;6.90;;;5.57;;
35496;SDS011;21609;49.298;6.844;2022-12-19T00:52:37;6.25;;;5.15;;
35496;SDS011;21609;49.298;6.844;2022-12-19T00:55:02;6.90;;;5.88;;
35496;SDS011;21609;49.298;6.844;2022-12-19T00:57:28;6.47;;;5.78;;
35496;SDS011;21609;49.298;6.844;2022-12-19T00:59:54;6.43;;;5.03;;
35496;SDS011;21609;49.298;6.844;2022-12-19T01:02:19;7.13;;;5.80;;
35496;SDS011;21609;49.298;6.844;2022-12-19T01:04:45;7.70;;;5.75;;
35496;SDS011;21609;49.298;6.844;2022-12-19T01:07:10;5.78;;;5.10;;
35496;SDS011;21609;49.298;6.844;2022-12-19T01:09:36;6.30;;;5.35;;
35496;SDS011;21609;49.298;6.844;2022-12-19T01:12:03;5.97;;;5.30;;
35496;SDS011;21609;49.298;6.844;2022-12-19T01:14:48;6.72;;;5.97;;
35496;SDS011;21609;49.298;6.844;2022-12-19T01:17:15;6.65;;;5.95;;
35496;SDS011;21609;49.298;6.844;2022-12-19T01:19:41;7.35;;;6.00;;
35496;SDS011;21609;49.298;6.844;2022-12-19T01:22:06;5.75;;;5.22;;
35496;SDS011;21609;49.298;6.844;2022-12-19T01:24:32;6.60;;;5.57;;
35496;SDS011;21609;49.298;6.844;2022-12-19T01:26:57;7.30;;;5.75;;
35496;SDS011;21609;49.298;6.844;2022-12-19T01:29:23;6.93;;;5.60;;
35496;SDS011;21609;49.298;6.844;2022-12-19T01:31:48;5.88;;;5.18;;
35496;SDS011;21609;49.298;6.844;2022-12-19T01:34:14;6.15;;;5.32;;
35496;SDS011;21609;49.298;6.844;2022-12-19T01:36:39;6.47;;;5.53;;
35496;SDS011;21609;49.298;6.844;2022-12-19T01:39:05;6.82;;;5.78;;
35496;SDS011;21609;49.298;6.844;2022-12-19T01:41:31;6.05;;;4.95;;
35496;SDS011;21609;49.298;6.844;2022-12-19T01:49:52;6.90;;;6.20;;
35496;SDS011;21609;49.298;6.844;2022-12-19T01:52:01;5.28;;;4.75;;
35496;SDS011;21609;49.298;6.844;2022-12-19T01:54:30;3.92;;;3.58;;
35496;SDS011;21609;49.298;6.844;2022-12-19T01:56:59;8.15;;;6.22;;
35496;SDS011;21609;49.298;6.844;2022-12-19T01:59:41;6.32;;;5.65;;
35496;SDS011;21609;49.298;6.844;2022-12-19T02:02:13;5.55;;;4.95;;
35496;SDS011;21609;49.298;6.844;2022-12-19T02:04:42;7.25;;;5.57;;
35496;SDS011;21609;49.298;6.844;2022-12-19T02:07:10;7.03;;;5.88;;
35496;SDS011;21609;49.298;6.844;2022-12-19T02:09:36;7.00;;;5.57;;
35496;SDS011;21609;49.298;6.844;2022-12-19T02:12:02;6.20;;;5.60;;
35496;SDS011;21609;49.298;6.844;2022-12-19T02:14:28;5.55;;;4.95;;
35496;SDS011;21609;49.298;6.844;2022-12-19T02:17:06;5.72;;;5.15;;
35496;SDS011;21609;49.298;6.844;2022-12-19T02:22:36;6.18;;;5.57;;
35496;SDS011;21609;49.298;6.844;2022-12-19T02:28:20;7.45;;;5.03;;
35496;SDS011;21609;49.298;6.844;2022-12-19T02:31:12;6.45;;;5.35;;
35496;SDS011;21609;49.298;6.844;2022-12-19T02:36:39;5.80;;;5.20;;
35496;SDS011;21609;49.298;6.844;2022-12-19T02:39:14;7.00;;;5.88;;
35496;SDS011;21609;49.298;6.844;2022-12-19T02:41:46;6.60;;;5.90;;
35496;SDS011;21609;49.298;6.844;2022-12-19T02:44:36;5.78;;;5.18;;
35496;SDS011;21609;49.298;6.844;2022-12-19T02:47:06;5.95;;;5.35;;
35496;SDS011;21609;49.298;6.844;2022-12-19T02:49:34;6.88;;;5.43;;
35496;SDS011;21609;49.298;6.844;2022-12-19T02:54:49;6.45;;;5.35;;
35496;SDS011;21609;49.298;6.844;2022-12-19T02:57:32;6.55;;;5.30;;
35496;SDS011;21609;49.298;6.844;2022-12-19T03:00:22;6.20;;;5.05;;
35496;SDS011;21609;49.298;6.844;2022-12-19T03:10:42;6.20;;;5.20;;
35496;SDS011;21609;49.298;6.844;2022-12-19T03:13:15;6.57;;;5.78;;
35496;SDS011;21609;49.298;6.844;2022-12-19T03:15:44;6.35;;;5.25;;
35496;SDS011;21609;49.298;6.844;2022-12-19T03:18:10;7.07;;;5.40;;
35496;SDS011;21609;49.298;6.844;2022-12-19T03:20:42;6.07;;;5.00;;
35496;SDS011;21609;49.298;6.844;2022-12-19T03:23:13;6.43;;;5.50;;
35496;SDS011;21609;49.298;6.844;2022-12-19T03:25:40;7.50;;;6.13;;
35496;SDS011;21609;49.298;6.844;2022-12-19T03:28:10;6.72;;;5.43;;
35496;SDS011;21609;49.298;6.844;2022-12-19T03:30:40;7.07;;;6.32;;
35496;SDS011;21609;49.298;6.844;2022-12-19T03:33:08;7.40;;;5.55;;
35496;SDS011;21609;49.298;6.844;2022-12-19T03:35:35;6.35;;;5.72;;
35496;SDS011;21609;49.298;6.844;2022-12-19T03:38:03;7.05;;;5.55;;
35496;SDS011;21609;49.298;6.844;2022-12-19T03:40:30;6.80;;;5.35;;
35496;SDS011;21609;49.298;6.844;2022-12-19T03:43:00;5.82;;;5.22;;
35496;SDS011;21609;49.298;6.844;2022-12-19T03:54:01;6.85;;;5.10;;
35496;SDS011;21609;49.298;6.844;2022-12-19T04:01:57;6.47;;;5.80;;
35496;SDS011;21609;49.298;6.844;2022-12-19T04:04:24;6.45;;;5.22;;
35496;SDS011;21609;49.298;6.844;2022-12-19T04:06:52;7.40;;;6.18;;
35496;SDS011;21609;49.298;6.844;2022-12-19T04:09:19;6.90;;;5.45;;
35496;SDS011;21609;49.298;6.844;2022-12-19T04:11:48;6.57;;;5.60;;
35496;SDS011;21609;49.298;6.844;2022-12-19T04:14:21;6.28;;;5.40;;
35496;SDS011;21609;49.298;6.844;2022-12-19T04:17:05;7.15;;;5.47;;
35496;SDS011;21609;49.298;6.844;2022-12-19T04:22:33;7.85;;;5.60;;
35496;SDS011;21609;49.298;6.844;2022-12-19T04:25:03;5.70;;;4.78;;
35496;SDS011;21609;49.298;6.844;2022-12-19T04:27:31;7.85;;;6.00;;
35496;SDS011;21609;49.298;6.844;2022-12-19T04:29:59;6.22;;;5.30;;
35496;SDS011;21609;49.298;6.844;2022-12-19T04:32:26;7.30;;;5.35;;
35496;SDS011;21609;49.298;6.844;2022-12-19T04:34:53;6.50;;;5.10;;
35496;SDS011;21609;49.298;6.844;2022-12-19T04:37:19;5.75;;;4.80;;
35496;SDS011;21609;49.298;6.844;2022-12-19T04:39:45;5.95;;;5.05;;
35496;SDS011;21609;49.298;6.844;2022-12-19T04:42:10;6.15;;;5.28;;
35496;SDS011;21609;49.298;6.844;2022-12-19T04:44:36;7.50;;;6.15;;
35496;SDS011;21609;49.298;6.844;2022-12-19T04:47:02;6.22;;;5.43;;
35496;SDS011;21609;49.298;6.844;2022-12-19T04:49:27;6.13;;;5.50;;
35496;SDS011;21609;49.298;6.844;2022-12-19T04:51:53;7.25;;;5.60;;
35496;SDS011;21609;49.298;6.844;2022-12-19T04:54:18;5.38;;;4.88;;
35496;SDS011;21609;49.298;6.844;2022-12-19T04:56:46;6.25;;;5.63;;
35496;SDS011;21609;49.298;6.844;2022-12-19T04:59:11;7.75;;;5.63;;
35496;SDS011;21609;49.298;6.844;2022-12-19T05:01:37;6.55;;;5.05;;
35496;SDS011;21609;49.298;6.844;2022-12-19T05:04:02;5.82;;;5.22;;
35496;SDS011;21609;49.298;6.844;2022-12-19T05:06:28;7.55;;;5.35;;
35496;SDS011;21609;49.298;6.844;2022-12-19T05:08:54;6.72;;;6.00;;
35496;SDS011;21609;49.298;6.844;2022-12-19T05:11:19;5.90;;;5.03;;
35496;SDS011;21609;49.298;6.844;2022-12-19T05:13:45;6.38;;;5.20;;
35496;SDS011;21609;49.298;6.844;2022-12-19T05:16:11;5.57;;;4.93;;
35496;SDS011;21609;49.298;6.844;2022-12-19T05:18:37;6.50;;;5.28;;
35496;SDS011;21609;49.298;6.844;2022-12-19T05:21:03;5.95;;;4.82;;
35496;SDS011;21609;49.298;6.844;2022-12-19T05:23:29;6.25;;;5.47;;
35496;SDS011;21609;49.298;6.844;2022-12-19T05:25:58;5.63;;;4.72;;
35496;SDS011;21609;49.298;6.844;2022-12-19T05:28:25;6.95;;;5.55;;
35496;SDS011;21609;49.298;6.844;2022-12-19T05:30:51;7.57;;;5.05;;
35496;SDS011;21609;49.298;6.844;2022-12-19T05:33:27;5.75;;;5.15;;
35496;SDS011;21609;49.298;6.844;2022-12-19T05:35:52;5.82;;;5.15;;
35496;SDS011;21609;49.298;6.844;2022-12-19T05:38:18;5.93;;;5.30;;
35496;SDS011;21609;49.298;6.844;2022-12-19T05:40:43;5.97;;;4.78;;
35496;SDS011;21609;49.298;6.844;2022-12-19T05:43:09;6.03;;;4.68;;
35496;SDS011;21609;49.298;6.844;2022-12-19T05:45:34;7.22;;;6.05;;
35496;SDS011;21609;49.298;6.844;2022-12-19T05:48:00;6.30;;;5.07;;
35496;SDS011;21609;49.298;6.844;2022-12-19T05:50:25;6.10;;;4.85;;
35496;SDS011;21609;49.298;6.844;2022-12-19T05:52:51;5.43;;;4.72;;
35496;SDS011;21609;49.298;6.844;2022-12-19T05:55:16;5.88;;;4.53;;
35496;SDS011;21609;49.298;6.844;2022-12-19T05:57:42;5.65;;;4.78;;
35496;SDS011;21609;49.298;6.844;2022-12-19T06:00:08;6.10;;;5.50;;
35496;SDS011;21609;49.298;6.844;2022-12-19T06:02:34;6.85;;;4.85;;
35496;SDS011;21609;49.298;6.844;2022-12-19T06:04:59;5.90;;;4.53;;
35496;SDS011;21609;49.298;6.844;2022-12-19T06:07:25;6.70;;;5.47;;
35496;SDS011;21609;49.298;6.844;2022-12-19T06:09:50;5.38;;;4.45;;
35496;SDS011;21609;49.298;6.844;2022-12-19T06:12:16;12.60;;;5.28;;
35496;SDS011;21609;49.298;6.844;2022-12-19T06:14:41;6.40;;;5.15;;
35496;SDS011;21609;49.298;6.844;2022-12-19T06:17:07;6.13;;;5.22;;
35496;SDS011;21609;49.298;6.844;2022-12-19T06:19:32;6.75;;;4.70;;
35496;SDS011;21609;49.298;6.844;2022-12-19T06:21:58;6.45;;;5.45;;
35496;SDS011;21609;49.298;6.844;2022-12-19T06:24:24;6.07;;;5.43;;
35496;SDS011;21609;49.298;6.844;2022-12-19T06:26:50;5.40;;;4.90;;
35496;SDS011;21609;49.298;6.844;2022-12-19T06:29:15;5.40;;;4.90;;
35496;SDS011;21609;49.298;6.844;2022-12-19T06:31:41;6.82;;;5.15;;
35496;SDS011;21609;49.298;6.844;2022-12-19T06:34:08;6.00;;;4.90;;
35496;SDS011;21609;49.298;6.844;2022-12-19T06:36:34;6.32;;;5.22;;
35496;SDS011;21609;49.298;6.844;2022-12-19T06:39:00;5.32;;;4.80;;
35496;SDS011;21609;49.298;6.844;2022-12-19T06:41:26;6.60;;;5.03;;
35496;SDS011;21609;49.298;6.844;2022-12-19T06:44:11;5.10;;;4.60;;
35496;SDS011;21609;49.298;6.844;2022-12-19T06:46:39;5.72;;;4.70;;
35496;SDS011;21609;49.298;6.844;2022-12-19T06:49:04;6.45;;;4.90;;
35496;SDS011;21609;49.298;6.844;2022-12-19T06:51:30;5.70;;;4.95;;
35496;SDS011;21609;49.298;6.844;2022-12-19T06:53:56;6.78;;;4.25;;
35496;SDS011;21609;49.298;6.844;2022-12-19T06:56:22;6.82;;;5.55;;
35496;SDS011;21609;49.298;6.844;2022-12-19T06:58:48;7.25;;;5.82;;
35496;SDS011;21609;49.298;6.844;2022-12-19T07:01:20;7.95;;;5.72;;
35496;SDS011;21609;49.298;6.844;2022-12-19T07:03:53;9.05;;;5.75;;
35496;SDS011;21609;49.298;6.844;2022-12-19T07:06:19;10.15;;;5.65;;
35496;SDS011;21609;49.298;6.844;2022-12-19T07:08:44;8.10;;;5.97;;
35496;SDS011;21609;49.298;6.844;2022-12-19T07:11:10;9.82;;;5.32;;
35496;SDS011;21609;49.298;6.844;2022-12-19T07:13:36;7.35;;;6.00;;
35496;SDS011;21609;49.298;6.844;2022-12-19T07:16:02;7.80;;;6.32;;
35496;SDS011;21609;49.298;6.844;2022-12-19T07:18:29;10.10;;;6.43;;
35496;SDS011;21609;49.298;6.844;2022-12-19T07:20:58;9.32;;;6.00;;
35496;SDS011;21609;49.298;6.844;2022-12-19T07:23:25;8.82;;;7.07;;
35496;SDS011;21609;49.298;6.844;2022-12-19T07:25:50;10.43;;;5.88;;
35496;SDS011;21609;49.298;6.844;2022-12-19T07:28:16;13.52;;;6.50;;
35496;SDS011;21609;49.298;6.844;2022-12-19T07:30:42;9.25;;;6.45;;
35496;SDS011;21609;49.298;6.844;2022-12-19T07:33:07;8.07;;;6.28;;
35496;SDS011;21609;49.298;6.844;2022-12-19T07:35:34;9.82;;;6.93;;
35496;SDS011;21609;49.298;6.844;2022-12-19T07:38:03;9.20;;;5.93;;
35496;SDS011;21609;49.298;6.844;2022-12-19T07:40:29;7.63;;;5.45;;
35496;SDS011;21609;49.298;6.844;2022-12-19T07:42:57;9.48;;;5.38;;
35496;SDS011;21609;49.298;6.844;2022-12-19T07:45:24;10.68;;;5.75;;
35496;SDS011;21609;49.298;6.844;2022-12-19T07:47:50;9.07;;;6.00;;
35496;SDS011;21609;49.298;6.844;2022-12-19T07:50:16;10.02;;;5.70;;
35496;SDS011;21609;49.298;6.844;2022-12-19T07:52:41;8.68;;;6.38;;
35496;SDS011;21609;49.298;6.844;2022-12-19T07:55:07;10.43;;;6.32;;
35496;SDS011;21609;49.298;6.844;2022-12-19T07:57:33;8.82;;;6.20;;
35496;SDS011;21609;49.298;6.844;2022-12-19T07:59:58;8.20;;;5.95;;
35496;SDS011;21609;49.298;6.844;2022-12-19T08:02:24;7.32;;;5.30;;
35496;SDS011;21609;49.298;6.844;2022-12-19T08:04:49;12.35;;;6.07;;
35496;SDS011;21609;49.298;6.844;2022-12-19T08:07:15;9.45;;;6.22;;
35496;SDS011;21609;49.298;6.844;2022-12-19T08:09:41;10.57;;;6.45;;
35496;SDS011;21609;49.298;6.844;2022-12-19T08:12:06;12.23;;;6.10;;
35496;SDS011;21609;49.298;6.844;2022-12-19T08:14:32;11.80;;;6.50;;
35496;SDS011;21609;49.298;6.844;2022-12-19T08:16:57;6.18;;;5.57;;
35496;SDS011;21609;49.298;6.844;2022-12-19T08:19:23;9.63;;;6.22;;
35496;SDS011;21609;49.298;6.844;2022-12-19T08:21:48;7.38;;;6.18;;
35496;SDS011;21609;49.298;6.844;2022-12-19T08:24:14;8.15;;;6.55;;
35496;SDS011;21609;49.298;6.844;2022-12-19T08:26:41;8.70;;;6.07;;
35496;SDS011;21609;49.298;6.844;2022-12-19T08:29:06;7.70;;;6.05;;
35496;SDS011;21609;49.298;6.844;2022-12-19T08:31:32;7.78;;;5.90;;
35496;SDS011;21609;49.298;6.844;2022-12-19T08:33:58;8.20;;;6.47;;
35496;SDS011;21609;49.298;6.844;2022-12-19T08:36:23;9.32;;;6.60;;
35496;SDS011;21609;49.298;6.844;2022-12-19T08:38:49;7.53;;;5.78;;
35496;SDS011;21609;49.298;6.844;2022-12-19T08:41:15;15.10;;;7.00;;
35496;SDS011;21609;49.298;6.844;2022-12-19T08:43:41;7.82;;;6.65;;
35496;SDS011;21609;49.298;6.844;2022-12-19T08:46:11;8.52;;;6.30;;
35496;SDS011;21609;49.298;6.844;2022-12-19T08:48:37;8.60;;;6.75;;
35496;SDS011;21609;49.298;6.844;2022-12-19T08:51:04;7.93;;;6.68;;
35496;SDS011;21609;49.298;6.844;2022-12-19T08:53:32;10.43;;;6.78;;
35496;SDS011;21609;49.298;6.844;2022-12-19T08:56:00;8.13;;;6.28;;
35496;SDS011;21609;49.298;6.844;2022-12-19T08:58:41;7.60;;;6.82;;
35496;SDS011;21609;49.298;6.844;2022-12-19T09:01:08;8.35;;;6.32;;
35496;SDS011;21609;49.298;6.844;2022-12-19T09:06:04;8.75;;;6.72;;
35496;SDS011;21609;49.298;6.844;2022-12-19T09:08:32;8.15;;;5.78;;
35496;SDS011;21609;49.298;6.844;2022-12-19T09:11:00;9.15;;;7.68;;
35496;SDS011;21609;49.298;6.844;2022-12-19T09:13:28;10.57;;;7.05;;
35496;SDS011;21609;49.298;6.844;2022-12-19T09:16:04;8.45;;;6.53;;
35496;SDS011;21609;49.298;6.844;2022-12-19T09:18:32;7.93;;;6.43;;
35496;SDS011;21609;49.298;6.844;2022-12-19T09:20:58;8.50;;;6.47;;
35496;SDS011;21609;49.298;6.844;2022-12-19T09:23:24;10.60;;;7.07;;
35496;SDS011;21609;49.298;6.844;2022-12-19T09:25:51;9.23;;;6.78;;
35496;SDS011;21609;49.298;6.844;2022-12-19T09:28:17;9.75;;;6.82;;
35496;SDS011;21609;49.298;6.844;2022-12-19T09:30:43;8.40;;;6.35;;
35496;SDS011;21609;49.298;6.844;2022-12-19T09:33:09;6.47;;;5.88;;
35496;SDS011;21609;49.298;6.844;2022-12-19T09:35:35;9.77;;;6.60;;
35496;SDS011;21609;49.298;6.844;2022-12-19T09:38:01;7.32;;;6.25;;
35496;SDS011;21609;49.298;6.844;2022-12-19T09:40:27;9.55;;;6.65;;
35496;SDS011;21609;49.298;6.844;2022-12-19T09:43:08;6.85;;;5.72;;
35496;SDS011;21609;49.298;6.844;2022-12-19T09:45:46;8.82;;;6.10;;
35496;SDS011;21609;49.298;6.844;2022-12-19T09:48:44;7.00;;;5.40;;
35496;SDS011;21609;49.298;6.844;2022-12-19T09:51:13;9.32;;;5.85;;
35496;SDS011;21609;49.298;6.844;2022-12-19T09:56:41;8.20;;;6.50;;
35496;SDS011;21609;49.298;6.844;2022-12-19T09:59:13;7.45;;;6.07;;
35496;SDS011;21609;49.298;6.844;2022-12-19T10:02:00;9.65;;;6.07;;
35496;SDS011;21609;49.298;6.844;2022-12-19T10:04:48;6.40;;;5.65;;
35496;SDS011;21609;49.298;6.844;2022-12-19T10:07:17;7.65;;;6.15;;
35496;SDS011;21609;49.298;6.844;2022-12-19T10:09:44;9.52;;;6.00;;
35496;SDS011;21609;49.298;6.844;2022-12-19T10:17:56;7.45;;;6.43;;
35496;SDS011;21609;49.298;6.844;2022-12-19T10:20:41;7.70;;;6.85;;
35496;SDS011;21609;49.298;6.844;2022-12-19T10:23:27;9.30;;;7.15;;
35496;SDS011;21609;49.298;6.844;2022-12-19T10:26:35;8.55;;;6.60;;
35496;SDS011;21609;49.298;6.844;2022-12-19T10:31:54;7.32;;;6.10;;
35496;SDS011;21609;49.298;6.844;2022-12-19T10:34:35;7.20;;;6.50;;
35496;SDS011;21609;49.298;6.844;2022-12-19T10:37:38;9.15;;;6.47;;
35496;SDS011;21609;49.298;6.844;2022-12-19T10:43:05;9.23;;;7.20;;
35496;SDS011;21609;49.298;6.844;2022-12-19T10:45:44;7.18;;;6.43;;
35496;SDS011;21609;49.298;6.844;2022-12-19T10:48:18;8.52;;;6.45;;
35496;SDS011;21609;49.298;6.844;2022-12-19T10:50:45;8.18;;;6.82;;
35496;SDS011;21609;49.298;6.844;2022-12-19T10:53:12;10.20;;;6.57;;
35496;SDS011;21609;49.298;6.844;2022-12-19T10:55:41;9.07;;;7.22;;
35496;SDS011;21609;49.298;6.844;2022-12-19T10:58:18;7.15;;;5.95;;
35496;SDS011;21609;49.298;6.844;2022-12-19T11:03:29;9.80;;;6.93;;
35496;SDS011;21609;49.298;6.844;2022-12-19T11:05:59;7.93;;;6.72;;
35496;SDS011;21609;49.298;6.844;2022-12-19T11:08:27;8.27;;;6.15;;
35496;SDS011;21609;49.298;6.844;2022-12-19T11:10:56;6.93;;;6.22;;
35496;SDS011;21609;49.298;6.844;2022-12-19T11:13:44;6.43;;;5.68;;
35496;SDS011;21609;49.298;6.844;2022-12-19T11:16:12;10.00;;;6.18;;
35496;SDS011;21609;49.298;6.844;2022-12-19T11:18:45;7.72;;;6.28;;
35496;SDS011;21609;49.298;6.844;2022-12-19T11:23:41;8.57;;;6.65;;
35496;SDS011;21609;49.298;6.844;2022-12-19T11:26:35;7.55;;;6.40;;
35496;SDS011;21609;49.298;6.844;2022-12-19T11:31:59;7.00;;;6.00;;
35496;SDS011;21609;49.298;6.844;2022-12-19T11:34:29;7.18;;;6.45;;
35496;SDS011;21609;49.298;6.844;2022-12-19T11:37:02;6.75;;;5.55;;
35496;SDS011;21609;49.298;6.844;2022-12-19T11:39:41;8.40;;;5.45;;
35496;SDS011;21609;49.298;6.844;2022-12-19T11:45:17;7.40;;;6.50;;
35496;SDS011;21609;49.298;6.844;2022-12-19T11:47:53;9.07;;;6.43;;
35496;SDS011;21609;49.298;6.844;2022-12-19T11:50:37;8.23;;;5.97;;
35496;SDS011;21609;49.298;6.844;2022-12-19T11:53:28;6.00;;;5.18;;
35496;SDS011;21609;49.298;6.844;2022-12-19T11:56:04;6.35;;;5.38;;
35496;SDS011;21609;49.298;6.844;2022-12-19T11:58:31;7.75;;;6.57;;
35496;SDS011;21609;49.298;6.844;2022-12-19T12:01:17;7.10;;;5.97;;
35496;SDS011;21609;49.298;6.844;2022-12-19T12:06:59;7.10;;;5.35;;
35496;SDS011;21609;49.298;6.844;2022-12-19T12:14:46;8.07;;;5.75;;
35496;SDS011;21609;49.298;6.844;2022-12-19T12:17:55;7.03;;;5.22;;
35496;SDS011;21609;49.298;6.844;2022-12-19T12:26:31;8.07;;;5.82;;
35496;SDS011;21609;49.298;6.844;2022-12-19T12:31:43;6.53;;;5.50;;
35496;SDS011;21609;49.298;6.844;2022-12-19T12:37:46;10.70;;;4.88;;
35496;SDS011;21609;49.298;6.844;2022-12-19T12:43:15;7.55;;;5.70;;
35496;SDS011;21609;49.298;6.844;2022-12-19T12:45:59;7.25;;;5.47;;
35496;SDS011;21609;49.298;6.844;2022-12-19T12:48:29;7.10;;;5.68;;
35496;SDS011;21609;49.298;6.844;2022-12-19T12:50:59;5.60;;;4.72;;
35496;SDS011;21609;49.298;6.844;2022-12-19T12:53:30;6.30;;;5.20;;
35496;SDS011;21609;49.298;6.844;2022-12-19T12:55:59;5.70;;;5.13;;
35496;SDS011;21609;49.298;6.844;2022-12-19T12:59:17;9.15;;;5.47;;
35496;SDS011;21609;49.298;6.844;2022-12-19T13:23:02;6.93;;;5.28;;
35496;SDS011;21609;49.298;6.844;2022-12-19T13:28:12;5.05;;;4.65;;
35496;SDS011;21609;49.298;6.844;2022-12-19T13:39:23;5.93;;;4.90;;
35496;SDS011;21609;49.298;6.844;2022-12-19T13:47:56;8.45;;;6.47;;
35496;SDS011;21609;49.298;6.844;2022-12-19T13:50:37;5.05;;;4.63;;
35496;SDS011;21609;49.298;6.844;2022-12-19T13:55:38;5.82;;;5.13;;
35496;SDS011;21609;49.298;6.844;2022-12-19T13:58:04;4.75;;;4.35;;
35496;SDS011;21609;49.298;6.844;2022-12-19T14:00:33;7.78;;;4.78;;
35496;SDS011;21609;49.298;6.844;2022-12-19T14:03:05;4.45;;;4.05;;
35496;SDS011;21609;49.298;6.844;2022-12-19T14:05:40;4.78;;;4.00;;
35496;SDS011;21609;49.298;6.844;2022-12-19T14:08:05;4.85;;;4.43;;
35496;SDS011;21609;49.298;6.844;2022-12-19T14:10:33;6.45;;;3.78;;
35496;SDS011;21609;49.298;6.844;2022-12-19T14:13:03;4.95;;;4.55;;
35496;SDS011;21609;49.298;6.844;2022-12-19T14:15:50;4.35;;;4.05;;
35496;SDS011;21609;49.298;6.844;2022-12-19T14:18:26;4.60;;;4.20;;
35496;SDS011;21609;49.298;6.844;2022-12-19T14:21:35;5.72;;;4.65;;
35496;SDS011;21609;49.298;6.844;2022-12-19T14:23:51;7.88;;;3.97;;
35496;SDS011;21609;49.298;6.844;2022-12-19T14:26:36;4.97;;;4.43;;
35496;SDS011;21609;49.298;6.844;2022-12-19T14:29:07;6.03;;;4.88;;
35496;SDS011;21609;49.298;6.844;2022-12-19T14:31:38;5.35;;;4.05;;
35496;SDS011;21609;49.298;6.844;2022-12-19T14:34:05;4.80;;;4.22;;
35496;SDS011;21609;49.298;6.844;2022-12-19T14:36:45;5.22;;;4.72;;
35496;SDS011;21609;49.298;6.844;2022-12-19T14:39:20;7.65;;;4.20;;
35496;SDS011;21609;49.298;6.844;2022-12-19T14:41:51;4.20;;;3.90;;
35496;SDS011;21609;49.298;6.844;2022-12-19T14:44:48;4.70;;;4.25;;
35496;SDS011;21609;49.298;6.844;2022-12-19T14:47:21;4.78;;;4.22;;
35496;SDS011;21609;49.298;6.844;2022-12-19T14:49:49;4.38;;;3.97;;
35496;SDS011;21609;49.298;6.844;2022-12-19T14:55:25;4.72;;;4.32;;
35496;SDS011;21609;49.298;6.844;2022-12-19T14:57:53;5.10;;;4.60;;
35496;SDS011;21609;49.298;6.844;2022-12-19T15:00:22;5.00;;;4.25;;
35496;SDS011;21609;49.298;6.844;2022-12-19T15:02:49;4.25;;;3.85;;
35496;SDS011;21609;49.298;6.844;2022-12-19T15:05:14;3.83;;;3.53;;
35496;SDS011;21609;49.298;6.844;2022-12-19T15:07:43;5.22;;;4.28;;
35496;SDS011;21609;49.298;6.844;2022-12-19T15:10:18;4.38;;;3.72;;
35496;SDS011;21609;49.298;6.844;2022-12-19T15:20:49;5.25;;;4.70;;
35496;SDS011;21609;49.298;6.844;2022-12-19T15:23:17;4.18;;;3.88;;
35496;SDS011;21609;49.298;6.844;2022-12-19T15:25:43;4.15;;;3.63;;
35496;SDS011;21609;49.298;6.844;2022-12-19T15:28:18;4.20;;;3.50;;
35496;SDS011;21609;49.298;6.844;2022-12-19T15:30:50;5.95;;;4.20;;
35496;SDS011;21609;49.298;6.844;2022-12-19T15:33:23;3.92;;;3.47;;
35496;SDS011;21609;49.298;6.844;2022-12-19T15:35:49;4.53;;;4.13;;
35496;SDS011;21609;49.298;6.844;2022-12-19T15:38:15;4.82;;;3.53;;
35496;SDS011;21609;49.298;6.844;2022-12-19T15:40:40;4.55;;;4.15;;
35496;SDS011;21609;49.298;6.844;2022-12-19T15:43:10;4.00;;;3.67;;
35496;SDS011;21609;49.298;6.844;2022-12-19T15:45:41;6.13;;;3.70;;
35496;SDS011;21609;49.298;6.844;2022-12-19T15:48:08;6.85;;;3.55;;
35496;SDS011;21609;49.298;6.844;2022-12-19T15:50:37;4.88;;;4.38;;
35496;SDS011;21609;49.298;6.844;2022-12-19T15:53:04;3.85;;;3.15;;
35496;SDS011;21609;49.298;6.844;2022-12-19T15:55:58;3.78;;;3.47;;
35496;SDS011;21609;49.298;6.844;2022-12-19T15:58:25;4.35;;;3.95;;
35496;SDS011;21609;49.298;6.844;2022-12-19T16:00:56;3.80;;;3.50;;
35496;SDS011;21609;49.298;6.844;2022-12-19T16:03:25;3.08;;;2.78;;
35496;SDS011;21609;49.298;6.844;2022-12-19T16:05:51;3.47;;;3.17;;
35496;SDS011;21609;49.298;6.844;2022-12-19T16:08:18;3.88;;;3.47;;
35496;SDS011;21609;49.298;6.844;2022-12-19T16:10:46;4.15;;;3.78;;
35496;SDS011;21609;49.298;6.844;2022-12-19T16:13:23;6.75;;;3.53;;
35496;SDS011;21609;49.298;6.844;2022-12-19T16:15:50;3.65;;;3.35;;
35496;SDS011;21609;49.298;6.844;2022-12-19T16:18:17;4.53;;;3.42;;
35496;SDS011;21609;49.298;6.844;2022-12-19T16:20:44;2.88;;;2.58;;
35496;SDS011;21609;49.298;6.844;2022-12-19T16:23:10;4.32;;;3.92;;
35496;SDS011;21609;49.298;6.844;2022-12-19T16:28:06;3.55;;;3.20;;
35496;SDS011;21609;49.298;6.844;2022-12-19T16:30:40;3.50;;;3.20;;
35496;SDS011;21609;49.298;6.844;2022-12-19T16:33:16;3.47;;;3.10;;
35496;SDS011;21609;49.298;6.844;2022-12-19T16:35:47;4.03;;;3.03;;
35496;SDS011;21609;49.298;6.844;2022-12-19T16:38:13;3.55;;;3.25;;
35496;SDS011;21609;49.298;6.844;2022-12-19T16:40:39;3.30;;;3.00;;
35496;SDS011;21609;49.298;6.844;2022-12-19T16:43:51;3.25;;;2.95;;
35496;SDS011;21609;49.298;6.844;2022-12-19T16:46:00;3.97;;;3.67;;
35496;SDS011;21609;49.298;6.844;2022-12-19T16:48:29;3.20;;;2.90;;
35496;SDS011;21609;49.298;6.844;2022-12-19T16:50:56;3.55;;;3.25;;
35496;SDS011;21609;49.298;6.844;2022-12-19T16:53:22;3.33;;;2.88;;
35496;SDS011;21609;49.298;6.844;2022-12-19T16:55:48;3.20;;;3.00;;
35496;SDS011;21609;49.298;6.844;2022-12-19T16:58:25;3.65;;;3.35;;
35496;SDS011;21609;49.298;6.844;2022-12-19T17:00:52;5.88;;;3.10;;
35496;SDS011;21609;49.298;6.844;2022-12-19T17:03:23;2.85;;;2.65;;
35496;SDS011;21609;49.298;6.844;2022-12-19T17:05:53;2.72;;;2.47;;
35496;SDS011;21609;49.298;6.844;2022-12-19T17:08:19;3.03;;;2.75;;
35496;SDS011;21609;49.298;6.844;2022-12-19T17:10:45;3.38;;;3.08;;
35496;SDS011;21609;49.298;6.844;2022-12-19T17:13:12;4.55;;;3.38;;
35496;SDS011;21609;49.298;6.844;2022-12-19T17:15:39;5.07;;;3.05;;
35496;SDS011;21609;49.298;6.844;2022-12-19T17:18:11;3.70;;;2.72;;
35496;SDS011;21609;49.298;6.844;2022-12-19T17:20:48;3.15;;;2.85;;
35496;SDS011;21609;49.298;6.844;2022-12-19T17:23:23;3.13;;;2.65;;
35496;SDS011;21609;49.298;6.844;2022-12-19T17:25:50;3.42;;;2.95;;
35496;SDS011;21609;49.298;6.844;2022-12-19T17:28:18;4.18;;;3.83;;
35496;SDS011;21609;49.298;6.844;2022-12-19T17:30:47;4.38;;;3.20;;
35496;SDS011;21609;49.298;6.844;2022-12-19T17:33:15;4.57;;;3.30;;
35496;SDS011;21609;49.298;6.844;2022-12-19T17:35:42;3.45;;;3.15;;